sensor_id;sensor_type;location;lat;lon;timestamp;pressure;altitude;pressure_sealevel;temperature;humidity
65758;BME280;52495;52.208;5.158;2023-04-03T00:00:33;103035.69;;;5.39;66.31
65758;BME280;52495;52.208;5.158;2023-04-03T00:03:00;103032.00;;;5.32;66.51
65758;BME280;52495;52.208;5.158;2023-04-03T00:05:27;103030.25;;;5.31;66.81
65758;BME280;52495;52.208;5.158;2023-04-03T00:07:53;103044.06;;;5.35;66.22
65758;BME280;52495;52.208;5.158;2023-04-03T00:10:22;103046.19;;;5.24;66.88
65758;BME280;52495;52.208;5.158;2023-04-03T00:12:49;103044.44;;;5.23;67.12
65758;BME280;52495;52.208;5.158;2023-04-03T00:15:16;103048.69;;;5.22;67.49
65758;BME280;52495;52.208;5.158;2023-04-03T00:17:42;103043.44;;;5.19;67.29
65758;BME280;52495;52.208;5.158;2023-04-03T00:20:10;103048.69;;;5.22;66.88
65758;BME280;52495;52.208;5.158;2023-04-03T00:22:36;103046.75;;;5.16;67.77
65758;BME280;52495;52.208;5.158;2023-04-03T00:25:04;103048.66;;;5.21;67.30
65758;BME280;52495;52.208;5.158;2023-04-03T00:27:32;103053.41;;;5.13;67.48
65758;BME280;52495;52.208;5.158;2023-04-03T00:29:59;103046.63;;;5.13;66.79
65758;BME280;52495;52.208;5.158;2023-04-03T00:32:26;103047.81;;;5.22;66.59
65758;BME280;52495;52.208;5.158;2023-04-03T00:34:52;103048.94;;;5.07;67.22
65758;BME280;52495;52.208;5.158;2023-04-03T00:37:19;103050.75;;;5.10;66.96
65758;BME280;52495;52.208;5.158;2023-04-03T00:39:46;103059.78;;;5.01;67.57
65758;BME280;52495;52.208;5.158;2023-04-03T00:42:13;103050.19;;;4.96;67.77
65758;BME280;52495;52.208;5.158;2023-04-03T00:47:45;103052.50;;;5.11;66.83
65758;BME280;52495;52.208;5.158;2023-04-03T00:50:12;103048.41;;;4.95;67.43
65758;BME280;52495;52.208;5.158;2023-04-03T00:52:39;103052.56;;;4.91;67.56
65758;BME280;52495;52.208;5.158;2023-04-03T00:55:08;103053.69;;;4.98;67.24
65758;BME280;52495;52.208;5.158;2023-04-03T00:57:36;103053.22;;;4.87;67.40
65758;BME280;52495;52.208;5.158;2023-04-03T01:00:07;103063.50;;;4.89;67.80
65758;BME280;52495;52.208;5.158;2023-04-03T01:02:36;103055.59;;;4.82;68.10
65758;BME280;52495;52.208;5.158;2023-04-03T01:05:05;103061.19;;;4.74;67.86
65758;BME280;52495;52.208;5.158;2023-04-03T01:07:32;103072.38;;;4.76;68.21
65758;BME280;52495;52.208;5.158;2023-04-03T01:10:06;103073.09;;;4.73;68.20
65758;BME280;52495;52.208;5.158;2023-04-03T01:12:35;103066.44;;;4.77;68.54
65758;BME280;52495;52.208;5.158;2023-04-03T01:15:06;103075.66;;;4.73;68.14
65758;BME280;52495;52.208;5.158;2023-04-03T01:17:35;103070.19;;;4.65;68.42
65758;BME280;52495;52.208;5.158;2023-04-03T01:20:56;103076.06;;;4.63;68.64
65758;BME280;52495;52.208;5.158;2023-04-03T01:23:42;103080.91;;;4.56;68.40
65758;BME280;52495;52.208;5.158;2023-04-03T01:26:12;103070.28;;;4.67;68.05
65758;BME280;52495;52.208;5.158;2023-04-03T01:28:39;103063.41;;;4.66;67.80
65758;BME280;52495;52.208;5.158;2023-04-03T01:31:13;103062.28;;;4.59;68.14
65758;BME280;52495;52.208;5.158;2023-04-03T01:33:44;103067.94;;;4.52;68.29
65758;BME280;52495;52.208;5.158;2023-04-03T01:36:16;103065.31;;;4.50;68.36
65758;BME280;52495;52.208;5.158;2023-04-03T01:38:43;103069.28;;;4.44;69.24
65758;BME280;52495;52.208;5.158;2023-04-03T01:41:10;103066.44;;;4.37;69.17
65758;BME280;52495;52.208;5.158;2023-04-03T01:43:37;103072.56;;;4.41;69.02
65758;BME280;52495;52.208;5.158;2023-04-03T01:46:04;103071.56;;;4.37;69.29
65758;BME280;52495;52.208;5.158;2023-04-03T01:48:31;103069.00;;;4.37;69.65
65758;BME280;52495;52.208;5.158;2023-04-03T01:50:59;103068.00;;;4.34;69.49
65758;BME280;52495;52.208;5.158;2023-04-03T01:53:26;103074.88;;;4.35;69.30
65758;BME280;52495;52.208;5.158;2023-04-03T01:55:52;103072.88;;;4.29;69.97
65758;BME280;52495;52.208;5.158;2023-04-03T01:58:20;103076.69;;;4.37;69.29
65758;BME280;52495;52.208;5.158;2023-04-03T02:00:48;103079.97;;;4.35;69.10
65758;BME280;52495;52.208;5.158;2023-04-03T02:03:15;103072.63;;;4.23;69.66
65758;BME280;52495;52.208;5.158;2023-04-03T02:05:42;103075.09;;;4.21;70.10
65758;BME280;52495;52.208;5.158;2023-04-03T02:08:11;103077.53;;;4.18;70.07
65758;BME280;52495;52.208;5.158;2023-04-03T02:10:38;103081.56;;;4.13;70.90
65758;BME280;52495;52.208;5.158;2023-04-03T02:13:05;103077.09;;;4.09;71.18
65758;BME280;52495;52.208;5.158;2023-04-03T02:15:32;103081.75;;;4.18;70.44
65758;BME280;52495;52.208;5.158;2023-04-03T02:17:59;103088.13;;;4.08;70.70
65758;BME280;52495;52.208;5.158;2023-04-03T02:20:26;103086.16;;;4.02;71.37
65758;BME280;52495;52.208;5.158;2023-04-03T02:22:53;103080.47;;;4.08;70.76
65758;BME280;52495;52.208;5.158;2023-04-03T02:25:21;103077.09;;;4.09;70.57
65758;BME280;52495;52.208;5.158;2023-04-03T02:27:47;103075.94;;;4.02;71.25
65758;BME280;52495;52.208;5.158;2023-04-03T02:30:14;103077.34;;;3.95;71.40
65758;BME280;52495;52.208;5.158;2023-04-03T02:32:42;103087.56;;;3.95;71.55
65758;BME280;52495;52.208;5.158;2023-04-03T02:35:10;103090.91;;;3.94;71.13
65758;BME280;52495;52.208;5.158;2023-04-03T02:37:38;103088.00;;;3.87;71.94
65758;BME280;52495;52.208;5.158;2023-04-03T02:40:07;103089.81;;;3.89;71.65
65758;BME280;52495;52.208;5.158;2023-04-03T02:42:38;103096.91;;;3.77;72.60
65758;BME280;52495;52.208;5.158;2023-04-03T02:45:06;103097.28;;;3.85;71.79
65758;BME280;52495;52.208;5.158;2023-04-03T02:47:33;103089.41;;;3.80;72.33
65758;BME280;52495;52.208;5.158;2023-04-03T02:49:59;103092.31;;;3.70;73.23
65758;BME280;52495;52.208;5.158;2023-04-03T02:52:26;103089.03;;;3.72;73.05
65758;BME280;52495;52.208;5.158;2023-04-03T02:54:56;103102.47;;;3.68;73.26
65758;BME280;52495;52.208;5.158;2023-04-03T02:57:23;103104.06;;;3.66;73.74
65758;BME280;52495;52.208;5.158;2023-04-03T02:59:51;103113.47;;;3.67;73.23
65758;BME280;52495;52.208;5.158;2023-04-03T03:02:18;103109.91;;;3.63;73.47
65758;BME280;52495;52.208;5.158;2023-04-03T03:04:45;103112.22;;;3.59;74.07
65758;BME280;52495;52.208;5.158;2023-04-03T03:07:11;103113.91;;;3.58;74.01
65758;BME280;52495;52.208;5.158;2023-04-03T03:09:38;103121.63;;;3.60;73.98
65758;BME280;52495;52.208;5.158;2023-04-03T03:12:05;103114.78;;;3.59;73.88
65758;BME280;52495;52.208;5.158;2023-04-03T03:14:32;103120.13;;;3.63;73.33
65758;BME280;52495;52.208;5.158;2023-04-03T03:17:00;103117.09;;;3.54;74.03
65758;BME280;52495;52.208;5.158;2023-04-03T03:19:27;103124.41;;;3.46;74.66
65758;BME280;52495;52.208;5.158;2023-04-03T03:21:53;103127.84;;;3.47;74.80
65758;BME280;52495;52.208;5.158;2023-04-03T03:24:21;103130.09;;;3.41;75.21
65758;BME280;52495;52.208;5.158;2023-04-03T03:26:48;103125.19;;;3.45;75.05
65758;BME280;52495;52.208;5.158;2023-04-03T03:29:15;103132.56;;;3.39;76.22
65758;BME280;52495;52.208;5.158;2023-04-03T03:31:42;103121.84;;;3.46;75.35
65758;BME280;52495;52.208;5.158;2023-04-03T03:34:11;103125.88;;;3.41;75.92
65758;BME280;52495;52.208;5.158;2023-04-03T03:36:38;103118.13;;;3.40;75.93
65758;BME280;52495;52.208;5.158;2023-04-03T03:39:06;103125.72;;;3.38;75.74
65758;BME280;52495;52.208;5.158;2023-04-03T03:41:33;103127.38;;;3.38;76.01
65758;BME280;52495;52.208;5.158;2023-04-03T03:44:00;103122.78;;;3.30;76.62
65758;BME280;52495;52.208;5.158;2023-04-03T03:46:29;103127.38;;;3.38;76.10
65758;BME280;52495;52.208;5.158;2023-04-03T03:48:56;103135.75;;;3.35;75.51
65758;BME280;52495;52.208;5.158;2023-04-03T03:51:24;103131.81;;;3.24;77.21
65758;BME280;52495;52.208;5.158;2023-04-03T03:53:51;103128.44;;;3.25;77.12
65758;BME280;52495;52.208;5.158;2023-04-03T03:56:19;103133.63;;;3.26;76.64
65758;BME280;52495;52.208;5.158;2023-04-03T03:58:46;103134.19;;;3.21;77.60
65758;BME280;52495;52.208;5.158;2023-04-03T04:01:13;103135.78;;;3.18;77.55
65758;BME280;52495;52.208;5.158;2023-04-03T04:03:45;103130.91;;;3.23;77.32
65758;BME280;52495;52.208;5.158;2023-04-03T04:06:16;103127.03;;;3.13;78.06
65758;BME280;52495;52.208;5.158;2023-04-03T04:08:45;103133.31;;;3.20;77.64
65758;BME280;52495;52.208;5.158;2023-04-03T04:11:13;103143.53;;;3.20;77.34
65758;BME280;52495;52.208;5.158;2023-04-03T04:13:41;103146.75;;;3.16;77.94
65758;BME280;52495;52.208;5.158;2023-04-03T04:16:10;103145.53;;;3.09;78.61
65758;BME280;52495;52.208;5.158;2023-04-03T04:18:37;103147.94;;;3.06;78.93
65758;BME280;52495;52.208;5.158;2023-04-03T04:21:04;103147.22;;;3.09;78.55
65758;BME280;52495;52.208;5.158;2023-04-03T04:23:31;103152.38;;;3.10;78.90
65758;BME280;52495;52.208;5.158;2023-04-03T04:26:01;103151.59;;;3.11;78.12
65758;BME280;52495;52.208;5.158;2023-04-03T04:28:32;103152.72;;;3.00;79.20
65758;BME280;52495;52.208;5.158;2023-04-03T04:31:01;103152.66;;;2.98;80.01
65758;BME280;52495;52.208;5.158;2023-04-03T04:33:28;103154.31;;;2.98;79.19
65758;BME280;52495;52.208;5.158;2023-04-03T04:35:57;103141.50;;;2.96;79.82
65758;BME280;52495;52.208;5.158;2023-04-03T04:38:24;103145.69;;;2.96;79.82
65758;BME280;52495;52.208;5.158;2023-04-03T04:40:52;103148.75;;;2.88;79.97
65758;BME280;52495;52.208;5.158;2023-04-03T04:43:21;103148.81;;;2.90;80.47
65758;BME280;52495;52.208;5.158;2023-04-03T04:46:00;103149.53;;;2.87;80.73
65758;BME280;52495;52.208;5.158;2023-04-03T04:48:27;103145.41;;;2.90;80.60
65758;BME280;52495;52.208;5.158;2023-04-03T04:50:54;103150.34;;;3.03;79.63
65758;BME280;52495;52.208;5.158;2023-04-03T04:53:21;103155.66;;;2.91;79.35
65758;BME280;52495;52.208;5.158;2023-04-03T04:55:48;103155.44;;;2.86;80.20
65758;BME280;52495;52.208;5.158;2023-04-03T04:58:15;103159.75;;;2.87;80.15
65758;BME280;52495;52.208;5.158;2023-04-03T05:00:43;103153.84;;;2.88;79.92
65758;BME280;52495;52.208;5.158;2023-04-03T05:03:11;103158.16;;;2.90;80.83
65758;BME280;52495;52.208;5.158;2023-04-03T05:05:38;103157.03;;;2.84;80.78
65758;BME280;52495;52.208;5.158;2023-04-03T05:08:05;103159.09;;;2.92;79.93
65758;BME280;52495;52.208;5.158;2023-04-03T05:10:32;103162.19;;;2.86;80.01
65758;BME280;52495;52.208;5.158;2023-04-03T05:12:58;103160.53;;;2.86;80.54
65758;BME280;52495;52.208;5.158;2023-04-03T05:15:26;103167.06;;;2.98;79.26
65758;BME280;52495;52.208;5.158;2023-04-03T05:17:54;103175.06;;;2.87;79.58
65758;BME280;52495;52.208;5.158;2023-04-03T05:20:21;103173.19;;;2.85;80.24
65758;BME280;52495;52.208;5.158;2023-04-03T05:22:49;103182.72;;;2.87;79.73
65758;BME280;52495;52.208;5.158;2023-04-03T05:25:17;103182.22;;;2.78;80.44
65758;BME280;52495;52.208;5.158;2023-04-03T05:27:44;103176.25;;;2.78;79.92
65758;BME280;52495;52.208;5.158;2023-04-03T05:30:12;103180.28;;;2.74;81.20
65758;BME280;52495;52.208;5.158;2023-04-03T05:32:40;103186.28;;;2.75;81.08
65758;BME280;52495;52.208;5.158;2023-04-03T05:35:17;103187.13;;;2.75;81.62
65758;BME280;52495;52.208;5.158;2023-04-03T05:37:47;103185.94;;;2.85;80.71
65758;BME280;52495;52.208;5.158;2023-04-03T05:40:15;103195.31;;;2.84;80.74
65758;BME280;52495;52.208;5.158;2023-04-03T05:42:44;103190.66;;;2.77;80.51
65758;BME280;52495;52.208;5.158;2023-04-03T05:45:12;103194.88;;;2.77;81.27
65758;BME280;52495;52.208;5.158;2023-04-03T05:47:39;103192.56;;;2.81;80.84
65758;BME280;52495;52.208;5.158;2023-04-03T05:50:08;103201.25;;;2.85;80.48
65758;BME280;52495;52.208;5.158;2023-04-03T05:52:37;103204.94;;;2.90;79.97
65758;BME280;52495;52.208;5.158;2023-04-03T05:55:07;103199.38;;;2.81;80.81
65758;BME280;52495;52.208;5.158;2023-04-03T05:57:35;103195.75;;;2.77;80.99
65758;BME280;52495;52.208;5.158;2023-04-03T06:00:03;103195.19;;;2.83;80.94
65758;BME280;52495;52.208;5.158;2023-04-03T06:02:39;103201.53;;;2.90;80.30
65758;BME280;52495;52.208;5.158;2023-04-03T06:05:10;103202.47;;;2.92;80.45
65758;BME280;52495;52.208;5.158;2023-04-03T06:07:40;103200.81;;;2.92;80.24
65758;BME280;52495;52.208;5.158;2023-04-03T06:10:07;103210.13;;;2.92;79.60
65758;BME280;52495;52.208;5.158;2023-04-03T06:12:35;103202.97;;;3.01;79.49
65758;BME280;52495;52.208;5.158;2023-04-03T06:15:02;103206.78;;;2.93;80.13
65758;BME280;52495;52.208;5.158;2023-04-03T06:17:29;103213.47;;;2.91;80.76
65758;BME280;52495;52.208;5.158;2023-04-03T06:19:56;103207.03;;;3.14;79.32
65758;BME280;52495;52.208;5.158;2023-04-03T06:22:24;103212.53;;;3.05;79.43
65758;BME280;52495;52.208;5.158;2023-04-03T06:24:54;103211.88;;;3.09;79.49
65758;BME280;52495;52.208;5.158;2023-04-03T06:27:21;103217.38;;;3.00;80.02
65758;BME280;52495;52.208;5.158;2023-04-03T06:29:47;103208.22;;;3.04;79.81
65758;BME280;52495;52.208;5.158;2023-04-03T06:32:14;103211.88;;;3.09;79.56
65758;BME280;52495;52.208;5.158;2023-04-03T06:34:41;103211.41;;;3.16;78.88
65758;BME280;52495;52.208;5.158;2023-04-03T06:37:10;103220.03;;;3.18;79.42
65758;BME280;52495;52.208;5.158;2023-04-03T06:39:37;103223.44;;;3.19;80.00
65758;BME280;52495;52.208;5.158;2023-04-03T06:42:05;103225.53;;;3.26;78.64
65758;BME280;52495;52.208;5.158;2023-04-03T06:44:37;103226.78;;;3.34;79.18
65758;BME280;52495;52.208;5.158;2023-04-03T06:47:04;103224.78;;;3.45;78.58
65758;BME280;52495;52.208;5.158;2023-04-03T06:49:31;103227.47;;;3.30;78.24
65758;BME280;52495;52.208;5.158;2023-04-03T06:51:58;103238.75;;;3.36;77.88
65758;BME280;52495;52.208;5.158;2023-04-03T06:54:25;103240.13;;;3.29;78.59
65758;BME280;52495;52.208;5.158;2023-04-03T06:56:52;103235.56;;;3.40;78.62
65758;BME280;52495;52.208;5.158;2023-04-03T06:59:20;103238.13;;;3.56;77.85
65758;BME280;52495;52.208;5.158;2023-04-03T07:01:47;103242.59;;;3.44;77.89
65758;BME280;52495;52.208;5.158;2023-04-03T07:04:14;103258.25;;;3.50;78.08
65758;BME280;52495;52.208;5.158;2023-04-03T07:06:41;103247.09;;;3.48;77.60
65758;BME280;52495;52.208;5.158;2023-04-03T07:09:08;103246.81;;;3.60;77.07
65758;BME280;52495;52.208;5.158;2023-04-03T07:11:36;103256.22;;;3.61;76.61
65758;BME280;52495;52.208;5.158;2023-04-03T07:14:02;103254.06;;;3.69;76.83
65758;BME280;52495;52.208;5.158;2023-04-03T07:16:31;103256.88;;;3.73;76.03
65758;BME280;52495;52.208;5.158;2023-04-03T07:18:58;103262.91;;;3.92;75.44
65758;BME280;52495;52.208;5.158;2023-04-03T07:21:24;103261.63;;;3.84;76.05
65758;BME280;52495;52.208;5.158;2023-04-03T07:23:51;103265.19;;;3.87;75.46
65758;BME280;52495;52.208;5.158;2023-04-03T07:26:18;103260.03;;;4.04;74.20
65758;BME280;52495;52.208;5.158;2023-04-03T07:28:46;103263.41;;;4.03;74.33
65758;BME280;52495;52.208;5.158;2023-04-03T07:31:16;103262.34;;;4.16;74.22
65758;BME280;52495;52.208;5.158;2023-04-03T07:33:45;103258.56;;;4.44;72.76
65758;BME280;52495;52.208;5.158;2023-04-03T07:36:17;103259.88;;;4.35;72.77
65758;BME280;52495;52.208;5.158;2023-04-03T07:38:47;103262.41;;;4.35;72.03
65758;BME280;52495;52.208;5.158;2023-04-03T07:41:14;103264.25;;;4.38;71.99
65758;BME280;52495;52.208;5.158;2023-04-03T07:43:43;103265.31;;;4.61;72.36
65758;BME280;52495;52.208;5.158;2023-04-03T07:46:10;103266.28;;;4.63;71.00
65758;BME280;52495;52.208;5.158;2023-04-03T07:48:37;103260.00;;;4.75;70.87
65758;BME280;52495;52.208;5.158;2023-04-03T07:51:05;103267.53;;;4.71;70.95
65758;BME280;52495;52.208;5.158;2023-04-03T07:53:32;103262.44;;;4.91;70.47
65758;BME280;52495;52.208;5.158;2023-04-03T07:56:00;103267.03;;;4.98;69.35
65758;BME280;52495;52.208;5.158;2023-04-03T07:58:29;103259.28;;;4.97;68.53
65758;BME280;52495;52.208;5.158;2023-04-03T08:00:56;103269.53;;;4.97;68.44
65758;BME280;52495;52.208;5.158;2023-04-03T08:03:22;103272.59;;;5.08;69.86
65758;BME280;52495;52.208;5.158;2023-04-03T08:05:50;103267.84;;;5.17;67.75
65758;BME280;52495;52.208;5.158;2023-04-03T08:08:21;103274.41;;;5.30;67.66
65758;BME280;52495;52.208;5.158;2023-04-03T08:10:49;103284.00;;;5.54;66.73
65758;BME280;52495;52.208;5.158;2023-04-03T08:13:17;103283.66;;;5.46;65.59
65758;BME280;52495;52.208;5.158;2023-04-03T08:15:44;103277.97;;;5.53;65.88
65758;BME280;52495;52.208;5.158;2023-04-03T08:18:11;103295.63;;;5.67;64.55
65758;BME280;52495;52.208;5.158;2023-04-03T08:20:38;103294.81;;;5.68;63.95
65758;BME280;52495;52.208;5.158;2023-04-03T08:23:05;103288.53;;;5.81;64.40
65758;BME280;52495;52.208;5.158;2023-04-03T08:25:34;103295.91;;;5.94;62.81
65758;BME280;52495;52.208;5.158;2023-04-03T08:28:03;103293.50;;;5.97;64.25
65758;BME280;52495;52.208;5.158;2023-04-03T08:30:30;103291.69;;;5.95;63.36
65758;BME280;52495;52.208;5.158;2023-04-03T08:32:57;103299.28;;;6.13;61.33
65758;BME280;52495;52.208;5.158;2023-04-03T08:35:24;103290.81;;;6.15;61.12
65758;BME280;52495;52.208;5.158;2023-04-03T08:37:51;103288.59;;;6.23;60.19
65758;BME280;52495;52.208;5.158;2023-04-03T08:40:17;103294.16;;;6.13;61.20
65758;BME280;52495;52.208;5.158;2023-04-03T08:42:53;103296.72;;;6.34;59.87
65758;BME280;52495;52.208;5.158;2023-04-03T08:45:30;103288.03;;;6.30;60.71
65758;BME280;52495;52.208;5.158;2023-04-03T08:48:03;103291.56;;;6.55;57.00
65758;BME280;52495;52.208;5.158;2023-04-03T08:50:36;103293.72;;;6.67;52.23
65758;BME280;52495;52.208;5.158;2023-04-03T08:53:05;103287.56;;;6.62;52.37
65758;BME280;52495;52.208;5.158;2023-04-03T08:55:41;103302.47;;;6.72;53.02
65758;BME280;52495;52.208;5.158;2023-04-03T08:58:12;103295.38;;;6.65;53.91
65758;BME280;52495;52.208;5.158;2023-04-03T09:00:44;103286.94;;;6.90;53.42
65758;BME280;52495;52.208;5.158;2023-04-03T09:03:14;103286.00;;;6.88;53.14
65758;BME280;52495;52.208;5.158;2023-04-03T09:05:45;103297.56;;;7.01;49.17
65758;BME280;52495;52.208;5.158;2023-04-03T09:08:21;103294.19;;;7.02;49.01
65758;BME280;52495;52.208;5.158;2023-04-03T09:10:49;103293.50;;;7.06;46.91
65758;BME280;52495;52.208;5.158;2023-04-03T09:13:24;103279.53;;;7.22;47.52
65758;BME280;52495;52.208;5.158;2023-04-03T09:15:54;103288.50;;;7.34;42.13
65758;BME280;52495;52.208;5.158;2023-04-03T09:18:27;103277.34;;;7.33;41.52
65758;BME280;52495;52.208;5.158;2023-04-03T09:21:01;103273.50;;;7.46;41.12
65758;BME280;52495;52.208;5.158;2023-04-03T09:23:32;103269.69;;;7.35;42.71
65758;BME280;52495;52.208;5.158;2023-04-03T09:26:04;103272.63;;;7.46;42.94
65758;BME280;52495;52.208;5.158;2023-04-03T09:28:38;103275.84;;;7.64;42.21
65758;BME280;52495;52.208;5.158;2023-04-03T09:31:16;103270.81;;;7.67;41.26
65758;BME280;52495;52.208;5.158;2023-04-03T09:33:45;103276.03;;;7.70;42.38
65758;BME280;52495;52.208;5.158;2023-04-03T09:36:13;103263.81;;;7.63;41.26
65758;BME280;52495;52.208;5.158;2023-04-03T09:38:40;103263.09;;;7.67;39.44
65758;BME280;52495;52.208;5.158;2023-04-03T09:41:13;103260.72;;;7.73;40.85
65758;BME280;52495;52.208;5.158;2023-04-03T09:43:52;103261.75;;;7.79;39.53
65758;BME280;52495;52.208;5.158;2023-04-03T09:46:28;103257.25;;;7.99;40.12
65758;BME280;52495;52.208;5.158;2023-04-03T09:48:57;103249.88;;;8.08;40.02
65758;BME280;52495;52.208;5.158;2023-04-03T09:51:25;103247.41;;;8.11;39.63
65758;BME280;52495;52.208;5.158;2023-04-03T09:53:54;103250.34;;;8.24;39.53
65758;BME280;52495;52.208;5.158;2023-04-03T09:56:24;103239.59;;;8.37;39.73
65758;BME280;52495;52.208;5.158;2023-04-03T09:59:08;103240.31;;;8.59;39.29
65758;BME280;52495;52.208;5.158;2023-04-03T10:01:37;103231.16;;;8.69;36.71
65758;BME280;52495;52.208;5.158;2023-04-03T10:04:07;103232.34;;;8.51;37.80
65758;BME280;52495;52.208;5.158;2023-04-03T10:06:37;103228.38;;;8.62;35.98
65758;BME280;52495;52.208;5.158;2023-04-03T10:09:16;103234.09;;;8.52;34.64
65758;BME280;52495;52.208;5.158;2023-04-03T10:11:57;103225.53;;;8.53;35.25
65758;BME280;52495;52.208;5.158;2023-04-03T10:14:26;103226.44;;;8.55;33.36
65758;BME280;52495;52.208;5.158;2023-04-03T10:16:59;103225.69;;;8.58;32.96
65758;BME280;52495;52.208;5.158;2023-04-03T10:19:36;103220.25;;;8.77;32.29
65758;BME280;52495;52.208;5.158;2023-04-03T10:22:16;103216.78;;;8.77;33.20
65758;BME280;52495;52.208;5.158;2023-04-03T10:24:52;103222.34;;;8.92;31.84
65758;BME280;52495;52.208;5.158;2023-04-03T10:27:29;103212.13;;;8.94;31.71
65758;BME280;52495;52.208;5.158;2023-04-03T10:30:08;103203.38;;;8.89;32.63
65758;BME280;52495;52.208;5.158;2023-04-03T10:32:51;103201.84;;;8.95;33.60
65758;BME280;52495;52.208;5.158;2023-04-03T10:35:35;103205.53;;;9.04;31.40
65758;BME280;52495;52.208;5.158;2023-04-03T10:38:09;103187.28;;;8.96;32.31
65758;BME280;52495;52.208;5.158;2023-04-03T10:40:47;103186.03;;;9.14;34.00
65758;BME280;52495;52.208;5.158;2023-04-03T10:43:21;103189.88;;;9.31;33.14
65758;BME280;52495;52.208;5.158;2023-04-03T10:46:00;103189.19;;;9.37;32.77
65758;BME280;52495;52.208;5.158;2023-04-03T10:48:53;103188.19;;;9.32;31.27
65758;BME280;52495;52.208;5.158;2023-04-03T10:51:27;103186.56;;;9.35;31.69
65758;BME280;52495;52.208;5.158;2023-04-03T10:54:00;103181.47;;;9.37;33.51
65758;BME280;52495;52.208;5.158;2023-04-03T10:56:35;103181.78;;;9.51;32.97
65758;BME280;52495;52.208;5.158;2023-04-03T10:59:15;103176.19;;;9.67;32.72
65758;BME280;52495;52.208;5.158;2023-04-03T11:01:46;103183.28;;;9.76;33.46
65758;BME280;52495;52.208;5.158;2023-04-03T11:04:16;103175.19;;;9.97;33.02
65758;BME280;52495;52.208;5.158;2023-04-03T11:06:47;103191.44;;;9.95;32.43
65758;BME280;52495;52.208;5.158;2023-04-03T11:09:21;103179.78;;;10.11;32.18
65758;BME280;52495;52.208;5.158;2023-04-03T11:11:51;103182.56;;;10.20;32.02
65758;BME280;52495;52.208;5.158;2023-04-03T11:14:25;103184.06;;;10.10;30.90
65758;BME280;52495;52.208;5.158;2023-04-03T11:17:01;103181.38;;;10.04;30.91
65758;BME280;52495;52.208;5.158;2023-04-03T11:19:35;103170.97;;;10.02;31.17
65758;BME280;52495;52.208;5.158;2023-04-03T11:22:09;103173.47;;;9.98;30.62
65758;BME280;52495;52.208;5.158;2023-04-03T11:24:39;103173.72;;;10.09;29.84
65758;BME280;52495;52.208;5.158;2023-04-03T11:27:13;103171.13;;;10.07;31.64
65758;BME280;52495;52.208;5.158;2023-04-03T11:29:44;103161.31;;;10.32;30.42
65758;BME280;52495;52.208;5.158;2023-04-03T11:32:34;103163.75;;;10.26;32.54
65758;BME280;52495;52.208;5.158;2023-04-03T11:35:05;103163.16;;;10.38;32.55
65758;BME280;52495;52.208;5.158;2023-04-03T11:37:36;103149.91;;;10.62;31.28
65758;BME280;52495;52.208;5.158;2023-04-03T11:40:06;103157.47;;;10.53;31.45
65758;BME280;52495;52.208;5.158;2023-04-03T11:42:38;103152.22;;;10.48;30.22
65758;BME280;52495;52.208;5.158;2023-04-03T11:45:34;103150.66;;;10.56;31.52
65758;BME280;52495;52.208;5.158;2023-04-03T11:48:05;103148.28;;;10.67;31.91
65758;BME280;52495;52.208;5.158;2023-04-03T11:50:44;103162.94;;;10.67;32.02
65758;BME280;52495;52.208;5.158;2023-04-03T11:53:34;103148.56;;;10.83;31.27
65758;BME280;52495;52.208;5.158;2023-04-03T11:56:04;103144.25;;;10.82;30.93
65758;BME280;52495;52.208;5.158;2023-04-03T11:58:33;103141.72;;;10.85;31.85
65758;BME280;52495;52.208;5.158;2023-04-03T12:01:04;103147.16;;;10.99;32.22
65758;BME280;52495;52.208;5.158;2023-04-03T12:03:57;103147.19;;;11.00;31.26
65758;BME280;52495;52.208;5.158;2023-04-03T12:12:27;103125.78;;;11.09;30.87
65758;BME280;52495;52.208;5.158;2023-04-03T12:14:54;103121.25;;;10.96;31.89
65758;BME280;52495;52.208;5.158;2023-04-03T12:17:25;103113.63;;;11.03;30.40
65758;BME280;52495;52.208;5.158;2023-04-03T12:19:54;103114.41;;;10.98;29.82
65758;BME280;52495;52.208;5.158;2023-04-03T12:22:22;103098.91;;;10.99;30.51
65758;BME280;52495;52.208;5.158;2023-04-03T12:24:50;103099.81;;;11.03;31.06
65758;BME280;52495;52.208;5.158;2023-04-03T12:27:26;103095.50;;;11.02;30.81
65758;BME280;52495;52.208;5.158;2023-04-03T12:29:59;103086.06;;;11.04;31.33
65758;BME280;52495;52.208;5.158;2023-04-03T12:32:46;103088.75;;;11.08;29.98
65758;BME280;52495;52.208;5.158;2023-04-03T12:35:21;103081.44;;;11.38;29.70
65758;BME280;52495;52.208;5.158;2023-04-03T12:41:19;103076.06;;;11.24;31.27
65758;BME280;52495;52.208;5.158;2023-04-03T12:44:27;103064.00;;;11.24;30.26
65758;BME280;52495;52.208;5.158;2023-04-03T12:47:01;103064.13;;;11.32;31.71
65758;BME280;52495;52.208;5.158;2023-04-03T12:49:36;103070.28;;;11.42;30.64
65758;BME280;52495;52.208;5.158;2023-04-03T12:52:17;103068.78;;;11.55;30.93
65758;BME280;52495;52.208;5.158;2023-04-03T12:54:47;103052.44;;;11.59;30.44
65758;BME280;52495;52.208;5.158;2023-04-03T12:57:17;103064.41;;;11.51;30.80
65758;BME280;52495;52.208;5.158;2023-04-03T12:59:45;103066.00;;;11.43;30.83
65758;BME280;52495;52.208;5.158;2023-04-03T13:02:23;103068.72;;;11.50;31.78
65758;BME280;52495;52.208;5.158;2023-04-03T13:04:53;103055.16;;;11.67;31.87
65758;BME280;52495;52.208;5.158;2023-04-03T13:07:23;103055.38;;;11.84;31.05
65758;BME280;52495;52.208;5.158;2023-04-03T13:09:57;103043.38;;;11.91;30.12
65758;BME280;52495;52.208;5.158;2023-04-03T13:12:25;103045.94;;;11.89;30.23
65758;BME280;52495;52.208;5.158;2023-04-03T13:14:54;103049.38;;;11.90;30.85
65758;BME280;52495;52.208;5.158;2023-04-03T13:17:22;103051.16;;;11.92;30.93
65758;BME280;52495;52.208;5.158;2023-04-03T13:19:49;103055.44;;;11.90;30.85
65758;BME280;52495;52.208;5.158;2023-04-03T13:22:27;103042.53;;;11.92;31.98
65758;BME280;52495;52.208;5.158;2023-04-03T13:24:58;103036.66;;;12.05;30.88